createdAt,value
2022-09-20T00:01:34.862Z,100881.66
2022-09-20T00:04:07.147Z,100891.78
2022-09-20T00:06:34.907Z,100883.34
2022-09-20T00:09:03.476Z,100880.72
2022-09-20T00:11:33.522Z,100894.09
2022-09-20T00:14:02.556Z,100880.69
2022-09-20T00:16:32.861Z,100886.97
2022-09-20T00:19:04.295Z,100885.09
2022-09-20T00:21:34.365Z,100903.69
2022-09-20T00:24:02.174Z,100889.81
2022-09-20T00:26:29.857Z,100886.09
2022-09-20T00:28:58.222Z,100890.41
2022-09-20T00:31:26.246Z,100890.59
2022-09-20T00:34:17.316Z,100891.38
2022-09-20T00:36:45.339Z,100882.53
2022-09-20T00:39:14.778Z,100882.00
2022-09-20T00:41:42.925Z,100881.19
2022-09-20T00:44:43.167Z,100879.25
2022-09-20T00:47:16.635Z,100869.63
2022-09-20T00:49:44.236Z,100863.75
2022-09-20T00:52:13.757Z,100858.75
2022-09-20T00:54:44.564Z,100863.13
2022-09-20T00:57:12.481Z,100863.44
2022-09-20T00:59:43.427Z,100861.59
2022-09-20T01:02:54.152Z,100869.69
2022-09-20T01:05:21.731Z,100862.91
2022-09-20T01:07:51.246Z,100861.56
2022-09-20T01:10:18.830Z,100875.75
2022-09-20T01:12:49.042Z,100873.56
2022-09-20T01:15:17.167Z,100884.06
2022-09-20T01:17:49.621Z,100876.38
2022-09-20T01:20:23.047Z,100887.31
2022-09-20T01:23:05.738Z,100878.75
2022-09-20T01:26:02.168Z,100884.81
2022-09-20T01:28:30.749Z,100895.06
2022-09-20T01:31:20.569Z,100896.59
2022-09-20T01:33:53.886Z,100895.69
2022-09-20T01:36:31.694Z,100900.13
2022-09-20T01:39:04.941Z,100891.56
2022-09-20T01:41:38.615Z,100896.09
2022-09-20T01:44:24.571Z,100898.50
2022-09-20T01:46:59.989Z,100894.91
2022-09-20T01:49:33.270Z,100902.78
2022-09-20T01:52:23.291Z,100894.31
2022-09-20T01:54:59.647Z,100899.44
2022-09-20T01:57:42.067Z,100896.75
2022-09-20T02:00:15.747Z,100896.19
2022-09-20T02:03:04.481Z,100897.97
2022-09-20T02:05:32.076Z,100893.34
2022-09-20T02:08:17.557Z,100905.78
2022-09-20T02:11:08.153Z,100906.56
2022-09-20T02:13:53.566Z,100898.63
2022-09-20T02:16:29.762Z,100897.88
2022-09-20T02:19:05.840Z,100901.28
2022-09-20T02:22:18.122Z,100905.03
2022-09-20T02:25:00.722Z,100897.81
2022-09-20T02:27:53.867Z,100901.28
2022-09-20T02:30:44.667Z,100900.69
2022-09-20T02:33:57.584Z,100901.66
2022-09-20T02:36:40.707Z,100899.75
2022-09-20T02:39:17.484Z,100893.84
2022-09-20T02:42:16.846Z,100903.94
2022-09-20T02:44:54.888Z,100894.34
2022-09-20T02:47:35.598Z,100892.44
2022-09-20T02:50:22.023Z,100889.78
2022-09-20T02:53:16.699Z,100895.25
2022-09-20T02:56:11.532Z,100888.06
2022-09-20T02:58:45.474Z,100893.63
2022-09-20T03:01:25.037Z,100893.41
2022-09-20T03:04:17.360Z,100895.69
2022-09-20T03:07:01.573Z,100896.59
2022-09-20T03:09:56.601Z,100880.63
2022-09-20T03:12:38.208Z,100894.75
2022-09-20T03:15:35.966Z,100885.91
2022-09-20T03:18:14.002Z,100885.16
2022-09-20T03:21:00.087Z,100888.16
2022-09-20T03:23:58.473Z,100883.84
2022-09-20T03:26:31.727Z,100887.72
2022-09-20T03:29:09.056Z,100887.84
2022-09-20T03:31:57.223Z,100893.28
2022-09-20T03:34:48.888Z,100890.47
2022-09-20T03:37:26.390Z,100889.78
2022-09-20T03:40:12.292Z,100898.44
2022-09-20T03:42:48.647Z,100893.53
2022-09-20T03:45:46.567Z,100898.19
2022-09-20T03:48:31.708Z,100897.66
2022-09-20T03:51:17.560Z,100894.00
2022-09-20T03:53:51.589Z,100895.94
2022-09-20T03:56:38.011Z,100892.53
2022-09-20T03:59:29.885Z,100899.41
2022-09-20T04:02:10.001Z,100894.44
2022-09-20T04:04:54.939Z,100885.44
2022-09-20T04:07:44.792Z,100893.75
2022-09-20T04:10:36.812Z,100896.34
2022-09-20T04:13:29.002Z,100901.34
2022-09-20T04:16:27.241Z,100901.66
2022-09-20T04:19:04.338Z,100904.88
2022-09-20T04:22:28.041Z,100895.72
2022-09-20T04:24:53.722Z,100909.56
2022-09-20T04:32:52.535Z,100920.78
2022-09-20T04:37:41.019Z,100912.13
2022-09-20T04:40:49.180Z,100907.41
2022-09-20T04:52:30.586Z,100933.53
2022-09-20T04:56:46.463Z,100944.94
2022-09-20T05:01:36.437Z,100945.19
2022-09-20T05:04:09.466Z,100950.31
2022-09-20T05:07:13.966Z,100947.59
2022-09-20T05:10:34.575Z,100962.63
2022-09-20T05:13:13.867Z,100961.44
2022-09-20T05:16:01.108Z,100972.75
2022-09-20T05:19:02.339Z,100967.03
2022-09-20T05:21:32.664Z,100974.75
2022-09-20T05:24:30.042Z,100976.75
2022-09-20T05:27:02.794Z,100979.13
2022-09-20T05:30:12.574Z,100979.06
2022-09-20T05:32:58.741Z,100978.47
2022-09-20T05:35:44.077Z,100985.88
2022-09-20T05:38:42.890Z,100993.06
2022-09-20T05:41:41.159Z,100996.69
2022-09-20T05:44:23.547Z,101004.78
2022-09-20T05:47:05.154Z,101007.31
2022-09-20T05:50:24.791Z,101012.38
2022-09-20T05:53:04.530Z,101009.28
2022-09-20T05:56:01.011Z,101019.97
2022-09-20T05:58:46.347Z,101016.03
2022-09-20T06:01:38.082Z,101019.22
2022-09-20T06:04:22.527Z,101021.53
2022-09-20T06:06:51.102Z,101020.97
2022-09-20T06:09:55.714Z,101020.50
2022-09-20T06:12:52.469Z,101025.34
2022-09-20T06:15:26.175Z,101033.47
2022-09-20T06:18:47.886Z,101035.97
2022-09-20T06:21:42.727Z,101030.47
2022-09-20T06:24:35.595Z,101032.22
2022-09-20T06:27:10.801Z,101037.38
2022-09-20T06:34:15.714Z,101030.13
2022-09-20T06:37:09.659Z,101034.25
2022-09-20T06:40:01.748Z,101035.22
2022-09-20T06:42:29.661Z,101033.69
2022-09-20T06:44:57.347Z,101029.22
2022-09-20T06:47:29.135Z,101027.06
2022-09-20T06:49:56.664Z,101034.91
2022-09-20T06:53:16.517Z,101031.38
2022-09-20T06:55:47.228Z,101028.72
2022-09-20T06:58:15.720Z,101023.31
2022-09-20T07:00:43.297Z,101031.78
2022-09-20T07:03:12.684Z,101032.50
2022-09-20T07:05:40.383Z,101034.41
2022-09-20T07:08:07.894Z,101036.00
2022-09-20T07:10:35.658Z,101049.78
2022-09-20T07:13:03.192Z,101053.50
2022-09-20T07:16:47.442Z,101048.09
2022-09-20T07:19:16.782Z,101048.28
2022-09-20T07:22:11.476Z,101054.38
2022-09-20T07:24:39.084Z,101056.56
2022-09-20T07:27:13.586Z,101049.28
2022-09-20T07:29:43.615Z,101054.16
2022-09-20T07:36:17.291Z,101063.81
2022-09-20T07:58:04.631Z,101078.84
2022-09-20T08:00:31.975Z,101082.84
2022-09-20T08:03:00.237Z,101086.97
2022-09-20T08:06:00.939Z,101086.06
2022-09-20T08:08:29.265Z,101092.97
2022-09-20T08:11:07.128Z,101087.22
2022-09-20T08:14:05.771Z,101093.00
2022-09-20T08:16:42.911Z,101086.69
2022-09-20T08:19:19.242Z,101096.41
2022-09-20T08:21:48.151Z,101093.44
2022-09-20T08:24:16.444Z,101084.22
2022-09-20T08:26:44.369Z,101092.56
2022-09-20T08:29:13.385Z,101095.81
2022-09-20T08:31:42.522Z,101102.13
2022-09-20T08:34:12.678Z,101099.53
2022-09-20T08:36:45.655Z,101095.06
2022-09-20T08:42:27.277Z,101090.94
2022-09-20T08:45:01.017Z,101092.84
2022-09-20T08:47:36.743Z,101106.44
2022-09-20T08:50:11.599Z,101091.72
2022-09-20T08:52:44.358Z,101079.63
2022-09-20T08:55:18.878Z,101082.63
2022-09-20T08:57:55.337Z,101086.81
2022-09-20T09:00:26.363Z,101085.56
2022-09-20T09:02:56.263Z,101083.97
2022-09-20T09:05:58.142Z,101089.31
2022-09-20T09:08:28.633Z,101075.44
2022-09-20T09:10:58.990Z,101080.13
2022-09-20T09:13:35.732Z,101089.16
2022-09-20T09:16:22.325Z,101076.22
2022-09-20T09:18:51.825Z,101079.78
2022-09-20T09:21:25.894Z,101073.50
2022-09-20T09:24:02.783Z,101087.44
2022-09-20T09:26:38.135Z,101079.75
2022-09-20T09:29:15.038Z,101074.38
2022-09-20T09:31:45.123Z,101074.44
2022-09-20T09:34:30.061Z,101071.41
2022-09-20T09:36:58.457Z,101070.97
2022-09-20T09:39:34.489Z,101067.69
2022-09-20T09:42:20.525Z,101061.19
2022-09-20T09:44:50.442Z,101061.72
2022-09-20T09:47:31.188Z,101062.00
2022-09-20T09:50:02.870Z,101065.63
2022-09-20T09:52:34.044Z,101052.78
2022-09-20T09:55:05.308Z,101052.19
2022-09-20T09:57:54.096Z,101057.75
2022-09-20T10:00:23.743Z,101057.88
2022-09-20T10:02:56.959Z,101049.47
2022-09-20T10:06:06.084Z,101042.66
2022-09-20T10:08:48.643Z,101047.72
2022-09-20T10:11:21.873Z,101038.50
2022-09-20T10:14:05.647Z,101038.75
2022-09-20T10:17:02.630Z,101036.03
2022-09-20T10:20:01.988Z,101038.72
2022-09-20T10:22:38.268Z,101031.84
2022-09-20T10:25:06.703Z,101020.66
2022-09-20T10:27:51.878Z,101015.00
2022-09-20T10:30:23.575Z,101022.66
2022-09-20T10:33:03.744Z,101014.56
2022-09-20T10:35:49.841Z,101017.75
2022-09-20T10:38:35.840Z,101016.16
2022-09-20T10:41:30.791Z,101009.53
2022-09-20T10:44:07.112Z,101014.75
2022-09-20T10:46:53.228Z,101014.50
2022-09-20T10:49:28.224Z,101002.63
2022-09-20T10:52:10.488Z,101006.34
2022-09-20T10:55:16.641Z,101005.09
2022-09-20T10:58:03.367Z,101002.81
2022-09-20T11:01:12.161Z,100995.63
2022-09-20T11:04:17.062Z,101009.69
2022-09-20T11:07:19.609Z,101006.66
2022-09-20T11:09:56.160Z,100997.16
2022-09-20T11:12:39.516Z,100997.38
2022-09-20T11:15:21.356Z,101001.72
2022-09-20T11:18:23.261Z,100999.41
2022-09-20T11:20:58.778Z,100995.25
2022-09-20T11:23:34.306Z,100998.59
2022-09-20T11:26:13.571Z,101004.56
2022-09-20T11:28:44.911Z,100986.81
2022-09-20T11:31:28.243Z,100990.91
2022-09-20T11:34:03.488Z,100993.03
2022-09-20T11:36:40.365Z,100992.41
2022-09-20T11:39:28.007Z,100993.00
2022-09-20T11:41:59.958Z,100981.56
2022-09-20T11:44:27.911Z,100982.84
2022-09-20T11:47:26.669Z,100982.66
2022-09-20T11:50:34.631Z,100981.19
2022-09-20T11:53:24.425Z,100979.91
2022-09-20T11:56:18.025Z,100970.22
2022-09-20T11:58:50.787Z,100977.03
2022-09-20T12:01:29.394Z,100967.44
2022-09-20T12:04:27.900Z,100966.22
2022-09-20T12:07:08.325Z,100955.94
2022-09-20T12:09:40.972Z,100958.50
2022-09-20T12:12:32.728Z,100961.06
2022-09-20T12:15:03.373Z,100958.28
2022-09-20T12:17:48.181Z,100944.81
2022-09-20T12:20:38.675Z,100947.25
2022-09-20T12:23:41.567Z,100949.75
2022-09-20T12:26:23.189Z,100940.06
2022-09-20T12:28:59.025Z,100936.91
2022-09-20T12:31:29.522Z,100944.16
2022-09-20T12:34:12.226Z,100930.59
2022-09-20T12:36:45.154Z,100936.28
2022-09-20T12:39:23.337Z,100945.19
2022-09-20T12:41:59.401Z,100936.53
2022-09-20T12:44:37.193Z,100919.50
2022-09-20T12:47:04.866Z,100928.38
2022-09-20T12:49:55.888Z,100920.97
2022-09-20T12:52:54.106Z,100922.06
2022-09-20T12:55:32.807Z,100915.84
2022-09-20T12:58:02.869Z,100920.06
2022-09-20T13:00:51.543Z,100919.84
2022-09-20T13:03:29.524Z,100913.97
2022-09-20T13:06:07.303Z,100911.53
2022-09-20T13:09:01.457Z,100910.19
2022-09-20T13:11:44.983Z,100913.94
2022-09-20T13:14:20.156Z,100904.50
2022-09-20T13:16:59.022Z,100907.28
2022-09-20T13:19:33.914Z,100902.09
2022-09-20T13:22:28.671Z,100891.91
2022-09-20T13:25:07.538Z,100888.81
2022-09-20T13:27:42.958Z,100890.53
2022-09-20T13:30:22.126Z,100892.72
2022-09-20T13:32:51.582Z,100890.03
2022-09-20T13:35:32.149Z,100888.53
2022-09-20T13:38:07.374Z,100889.47
2022-09-20T13:40:38.535Z,100886.63
2022-09-20T13:43:25.035Z,100872.00
2022-09-20T13:45:59.534Z,100875.59
2022-09-20T13:48:29.240Z,100873.00
2022-09-20T13:50:57.429Z,100873.09
2022-09-20T13:53:41.030Z,100865.97
2022-09-20T13:56:19.514Z,100863.69
2022-09-20T13:58:48.303Z,100854.38
2022-09-20T14:01:30.028Z,100853.19
2022-09-20T14:04:06.957Z,100857.75
2022-09-20T14:06:35.704Z,100842.66
2022-09-20T14:09:11.106Z,100850.63
2022-09-20T14:11:41.447Z,100856.63
2022-09-20T14:14:12.568Z,100848.88
2022-09-20T14:16:45.118Z,100849.88
2022-09-20T14:19:17.153Z,100836.53
2022-09-20T14:21:44.997Z,100852.81
2022-09-20T14:24:14.686Z,100845.69
2022-09-20T14:27:00.699Z,100840.13
2022-09-20T14:29:28.083Z,100841.56
2022-09-20T14:31:57.405Z,100840.59
2022-09-20T14:34:25.270Z,100832.25
2022-09-20T14:37:12.434Z,100829.09
2022-09-20T14:39:54.685Z,100829.25
2022-09-20T14:42:55.881Z,100830.88
2022-09-20T14:45:33.740Z,100829.59
2022-09-20T14:48:45.614Z,100823.03
2022-09-20T14:51:16.573Z,100823.00
2022-09-20T14:53:47.767Z,100823.53
2022-09-20T14:56:17.059Z,100816.66
2022-09-20T14:59:23.625Z,100820.25
2022-09-20T15:02:13.424Z,100819.47
2022-09-20T15:04:55.083Z,100823.22
2022-09-20T15:07:22.555Z,100822.44
2022-09-20T15:09:50.021Z,100816.56
2022-09-20T15:12:19.860Z,100810.81
2022-09-20T15:14:48.274Z,100814.38
2022-09-20T15:17:18.594Z,100814.16
2022-09-20T15:19:46.686Z,100809.38
2022-09-20T15:22:15.244Z,100807.53
2022-09-20T15:24:43.520Z,100805.41
2022-09-20T15:27:12.315Z,100808.88
2022-09-20T15:29:40.067Z,100808.88
2022-09-20T15:32:11.010Z,100820.75
2022-09-20T15:34:38.488Z,100817.84
2022-09-20T15:37:06.065Z,100807.19
2022-09-20T15:39:33.481Z,100799.19
2022-09-20T15:42:01.467Z,100805.06
2022-09-20T15:44:29.391Z,100806.19
2022-09-20T15:46:56.796Z,100805.63
2022-09-20T15:49:24.123Z,100807.81
2022-09-20T15:51:53.162Z,100796.31
2022-09-20T15:54:21.185Z,100801.56
2022-09-20T15:56:49.250Z,100808.78
2022-09-20T15:59:17.282Z,100806.66
2022-09-20T16:01:45.655Z,100804.91
2022-09-20T16:04:22.277Z,100796.31
2022-09-20T16:06:52.106Z,100792.81
2022-09-20T16:09:20.347Z,100797.31
2022-09-20T16:11:50.812Z,100804.78
2022-09-20T16:14:18.523Z,100796.31
2022-09-20T16:16:47.163Z,100799.75
2022-09-20T16:19:17.266Z,100800.19
2022-09-20T16:21:59.418Z,100797.50
2022-09-20T16:24:32.214Z,100796.25
2022-09-20T16:27:03.895Z,100804.00
2022-09-20T16:29:32.106Z,100800.66
2022-09-20T16:32:00.754Z,100804.19
2022-09-20T16:34:31.439Z,100801.63
2022-09-20T16:36:59.985Z,100801.50
2022-09-20T16:39:30.414Z,100800.47
2022-09-20T16:42:05.942Z,100792.53
2022-09-20T16:44:45.069Z,100800.63
2022-09-20T16:47:25.570Z,100797.50
2022-09-20T16:49:54.399Z,100793.19
2022-09-20T16:52:22.138Z,100805.75
2022-09-20T16:54:50.195Z,100795.09
2022-09-20T16:57:17.688Z,100808.00
2022-09-20T16:59:46.559Z,100800.50
2022-09-20T17:02:14.227Z,100807.16
2022-09-20T17:04:43.928Z,100804.34
2022-09-20T17:07:14.770Z,100807.69
2022-09-20T17:09:48.374Z,100801.56
2022-09-20T17:12:22.058Z,100808.28
2022-09-20T17:14:50.857Z,100810.19
2022-09-20T17:17:22.070Z,100820.38
2022-09-20T17:19:49.752Z,100825.03
2022-09-20T17:22:17.455Z,100827.59
2022-09-20T17:24:45.769Z,100822.69
2022-09-20T17:27:13.274Z,100827.34
2022-09-20T17:29:40.808Z,100829.41
2022-09-20T17:32:08.394Z,100831.97
2022-09-20T17:34:36.486Z,100837.69
2022-09-20T17:37:04.956Z,100839.22
2022-09-20T17:39:32.571Z,100848.78
2022-09-20T17:42:01.472Z,100847.31
2022-09-20T17:44:29.006Z,100848.28
2022-09-20T17:46:56.670Z,100849.94
2022-09-20T17:49:24.473Z,100855.69
2022-09-20T17:51:54.581Z,100860.59
2022-09-20T17:54:24.603Z,100864.50
2022-09-20T17:56:56.098Z,100863.19
2022-09-20T17:59:24.618Z,100872.50
2022-09-20T18:01:52.415Z,100868.13
2022-09-20T18:04:21.567Z,100862.03
2022-09-20T18:06:51.899Z,100879.59
2022-09-20T18:09:26.040Z,100865.97
2022-09-20T18:12:05.622Z,100863.41
2022-09-20T18:14:55.372Z,100873.16
2022-09-20T18:17:37.493Z,100874.25
2022-09-20T18:20:15.567Z,100887.63
2022-09-20T18:22:43.509Z,100889.88
2022-09-20T18:25:13.323Z,100901.22
2022-09-20T18:27:55.566Z,100900.06
2022-09-20T18:30:36.972Z,100893.19
2022-09-20T18:33:08.426Z,100888.41
2022-09-20T18:35:37.203Z,100897.44
2022-09-20T18:38:06.310Z,100900.63
2022-09-20T18:40:36.800Z,100896.53
2022-09-20T18:43:05.465Z,100915.34
2022-09-20T18:45:33.781Z,100913.41
2022-09-20T18:48:01.671Z,100923.50
2022-09-20T18:50:42.088Z,100920.38
2022-09-20T18:53:10.151Z,100938.47
2022-09-20T18:55:37.981Z,100929.28
2022-09-20T18:58:05.776Z,100933.41
2022-09-20T19:00:34.140Z,100929.84
2022-09-20T19:03:19.702Z,100935.19
2022-09-20T19:05:58.989Z,100942.72
2022-09-20T19:08:47.382Z,100943.53
2022-09-20T19:11:27.383Z,100943.44
2022-09-20T19:14:03.147Z,100949.25
2022-09-20T19:16:37.072Z,100951.34
2022-09-20T19:19:46.662Z,100961.88
2022-09-20T19:22:30.978Z,100972.94
2022-09-20T19:25:16.504Z,100972.97
2022-09-20T19:27:44.504Z,100968.38
2022-09-20T19:30:16.933Z,100975.09
2022-09-20T19:35:53.297Z,100975.28
2022-09-20T19:38:28.064Z,100985.09
2022-09-20T19:41:19.817Z,100990.78
2022-09-20T19:44:07.605Z,100987.38
2022-09-20T19:46:47.272Z,100986.78
2022-09-20T19:49:44.301Z,100989.34
2022-09-20T19:52:13.794Z,100980.16
2022-09-20T19:54:46.992Z,100989.69
2022-09-20T19:57:23.155Z,100991.16
2022-09-20T19:59:51.258Z,100989.53
2022-09-20T20:02:19.145Z,100999.97
2022-09-20T20:04:48.127Z,101002.97
2022-09-20T20:07:57.095Z,100997.84
2022-09-20T20:10:35.439Z,101007.84
2022-09-20T20:13:33.790Z,100996.00
2022-09-20T20:16:04.945Z,100999.53
2022-09-20T20:18:52.860Z,101005.91
2022-09-20T20:21:51.703Z,101009.31
2022-09-20T20:24:44.595Z,101013.41
2022-09-20T20:27:17.478Z,101004.84
2022-09-20T20:29:53.191Z,101018.28
2022-09-20T20:32:21.224Z,101019.94
2022-09-20T20:35:07.836Z,101023.44
2022-09-20T20:37:36.182Z,101025.72
2022-09-20T20:40:04.172Z,101029.00
2022-09-20T20:42:34.462Z,101038.56
2022-09-20T20:45:03.565Z,101031.16
2022-09-20T20:47:31.139Z,101038.88
2022-09-20T20:49:58.853Z,101038.44
2022-09-20T20:52:27.047Z,101039.22
2022-09-20T20:55:06.773Z,101043.28
2022-09-20T20:57:40.203Z,101047.53
2022-09-20T21:00:11.129Z,101044.09
2022-09-20T21:06:40.215Z,101048.41
2022-09-20T21:09:09.211Z,101054.09
2022-09-20T21:11:39.117Z,101057.50
2022-09-20T21:14:09.338Z,101064.19
2022-09-20T21:16:43.350Z,101059.03
2022-09-20T21:19:16.004Z,101065.88
2022-09-20T21:21:49.147Z,101061.09
2022-09-20T21:24:19.771Z,101066.25
2022-09-20T21:27:15.878Z,101073.59
2022-09-20T21:29:48.766Z,101062.22
2022-09-20T21:32:31.819Z,101076.38
2022-09-20T21:35:02.469Z,101066.97
2022-09-20T21:37:35.811Z,101067.72
2022-09-20T21:40:19.466Z,101070.72
2022-09-20T21:42:52.805Z,101073.50
2022-09-20T21:45:24.969Z,101089.00
2022-09-20T21:47:53.120Z,101077.28
2022-09-20T21:50:23.512Z,101077.09
2022-09-20T21:52:59.877Z,101080.44
2022-09-20T21:55:28.197Z,101084.00
2022-09-20T21:57:56.298Z,101079.78
2022-09-20T22:00:27.524Z,101091.56
2022-09-20T22:02:59.475Z,101083.16
2022-09-20T22:05:27.342Z,101095.41
2022-09-20T22:07:56.630Z,101087.09
2022-09-20T22:10:26.840Z,101089.47
2022-09-20T22:12:54.587Z,101091.31
2022-09-20T22:15:23.497Z,101090.75
2022-09-20T22:17:54.169Z,101091.19
2022-09-20T22:20:22.171Z,101094.81
2022-09-20T22:22:50.012Z,101090.72
2022-09-20T22:25:22.062Z,101088.84
2022-09-20T22:27:49.574Z,101092.22
2022-09-20T22:30:17.190Z,101087.47
2022-09-20T22:32:45.144Z,101090.13
2022-09-20T22:35:14.524Z,101101.47
2022-09-20T22:37:42.036Z,101106.44
2022-09-20T22:40:10.227Z,101095.59
2022-09-20T22:42:38.368Z,101103.06
2022-09-20T22:45:08.309Z,101100.31
2022-09-20T22:47:35.804Z,101099.56
2022-09-20T22:50:03.428Z,101094.78
2022-09-20T22:52:31.027Z,101108.00
2022-09-20T22:54:58.780Z,101099.22
2022-09-20T22:57:27.006Z,101098.63
2022-09-20T22:59:54.576Z,101109.28
2022-09-20T23:02:22.333Z,101102.34
2022-09-20T23:04:49.928Z,101105.13
2022-09-20T23:07:19.630Z,101103.88
2022-09-20T23:09:48.092Z,101098.09
2022-09-20T23:12:15.653Z,101096.63
2022-09-20T23:14:43.243Z,101103.41
2022-09-20T23:17:10.761Z,101093.31
2022-09-20T23:19:38.220Z,101102.09
2022-09-20T23:22:05.674Z,101097.00
2022-09-20T23:24:33.292Z,101097.03
